createdAt,value
2018-08-28T00:02:10.937Z,98351.22
2018-08-28T00:04:40.106Z,98357.77
2018-08-28T00:07:09.447Z,98360.63
2018-08-28T00:09:38.916Z,98353.70
2018-08-28T00:12:08.521Z,98353.53
2018-08-28T00:14:37.834Z,98354.47
2018-08-28T00:17:07.069Z,98356.95
2018-08-28T00:19:36.199Z,98362.23
2018-08-28T00:22:05.390Z,98368.38
2018-08-28T00:24:34.525Z,98365.84
2018-08-28T00:27:03.657Z,98365.75
2018-08-28T00:29:33.401Z,98373.17
2018-08-28T00:32:02.567Z,98375.92
2018-08-28T00:34:31.829Z,98369.20
2018-08-28T00:37:00.929Z,98375.55
2018-08-28T00:39:30.378Z,98374.36
2018-08-28T00:41:59.546Z,98373.39
2018-08-28T00:44:28.667Z,98375.70
2018-08-28T00:46:57.810Z,98371.61
2018-08-28T00:49:26.931Z,98379.06
2018-08-28T00:51:56.094Z,98380.13
2018-08-28T00:54:25.245Z,98390.55
2018-08-28T00:56:54.341Z,98390.31
2018-08-28T00:59:23.465Z,98389.09
2018-08-28T01:01:52.609Z,98384.33
2018-08-28T01:04:22.202Z,98382.19
2018-08-28T01:06:51.510Z,98381.52
2018-08-28T01:09:21.173Z,98384.84
2018-08-28T01:11:50.610Z,98381.27
2018-08-28T01:14:19.382Z,98383.00
2018-08-28T01:16:48.505Z,98380.25
2018-08-28T01:19:17.648Z,98381.70
2018-08-28T01:21:46.778Z,98384.63
2018-08-28T01:24:15.909Z,98373.02
2018-08-28T01:26:45.046Z,98387.98
2018-08-28T01:29:15.028Z,98393.55
2018-08-28T01:31:44.140Z,98392.10
2018-08-28T01:34:13.267Z,98396.28
2018-08-28T01:36:42.749Z,98396.27
2018-08-28T01:39:11.913Z,98395.13
2018-08-28T01:41:41.027Z,98399.07
2018-08-28T01:44:10.181Z,98395.68
2018-08-28T01:46:39.278Z,98399.03
2018-08-28T01:49:08.421Z,98395.38
2018-08-28T01:51:37.538Z,98396.81
2018-08-28T01:54:06.666Z,98400.23
2018-08-28T01:56:35.842Z,98398.73
2018-08-28T01:59:05.018Z,98396.11
2018-08-28T02:01:34.131Z,98389.66
2018-08-28T02:04:03.421Z,98386.50
2018-08-28T02:06:33.086Z,98384.80
2018-08-28T02:09:02.201Z,98387.71
2018-08-28T02:11:31.341Z,98388.72
2018-08-28T02:14:00.447Z,98383.77
2018-08-28T02:16:30.242Z,98390.72
2018-08-28T02:18:59.893Z,98383.17
2018-08-28T02:21:29.063Z,98380.55
2018-08-28T02:23:58.333Z,98384.87
2018-08-28T02:26:27.465Z,98382.52
2018-08-28T02:28:56.573Z,98387.88
2018-08-28T02:31:25.719Z,98391.46
2018-08-28T02:33:54.885Z,98387.16
2018-08-28T02:36:24.699Z,98387.81
2018-08-28T02:38:54.658Z,98382.73
2018-08-28T02:41:23.783Z,98381.92
2018-08-28T02:43:52.906Z,98386.48
2018-08-28T02:46:22.073Z,98382.03
2018-08-28T02:48:51.235Z,98388.68
2018-08-28T02:51:20.361Z,98392.21
2018-08-28T02:53:49.506Z,98389.28
2018-08-28T02:56:18.649Z,98390.75
2018-08-28T02:58:48.164Z,98384.88
2018-08-28T03:01:17.325Z,98386.83
2018-08-28T03:03:46.489Z,98393.80
2018-08-28T03:06:16.141Z,98396.92
2018-08-28T03:08:45.258Z,98400.17
2018-08-28T03:11:14.493Z,98398.39
2018-08-28T03:13:44.518Z,98401.88
2018-08-28T03:16:13.931Z,98402.59
2018-08-28T03:18:42.930Z,98403.56
2018-08-28T03:21:12.083Z,98401.63
2018-08-28T03:23:41.465Z,98401.54
2018-08-28T03:26:10.966Z,98408.98
2018-08-28T03:28:40.252Z,98412.41
2018-08-28T03:31:09.442Z,98412.23
2018-08-28T03:33:38.742Z,98407.13
2018-08-28T03:36:07.853Z,98414.88
2018-08-28T03:38:37.292Z,98407.59
2018-08-28T03:41:06.430Z,98411.66
2018-08-28T03:43:36.007Z,98411.66
2018-08-28T03:46:05.157Z,98411.77
2018-08-28T03:48:34.259Z,98412.32
2018-08-28T03:51:03.394Z,98420.88
2018-08-28T03:53:33.067Z,98418.79
2018-08-28T03:56:02.175Z,98422.91
2018-08-28T03:58:31.374Z,98427.13
2018-08-28T04:01:00.515Z,98428.97
2018-08-28T04:03:29.689Z,98430.44
2018-08-28T04:05:58.805Z,98431.22
2018-08-28T04:08:28.613Z,98426.50
2018-08-28T04:10:57.737Z,98429.59
2018-08-28T04:13:26.869Z,98438.00
2018-08-28T04:15:55.996Z,98435.66
2018-08-28T04:18:25.220Z,98437.44
2018-08-28T04:20:54.843Z,98435.67
2018-08-28T04:23:24.114Z,98436.59
2018-08-28T04:25:54.415Z,98436.89
2018-08-28T04:28:26.172Z,98442.31
2018-08-28T04:30:55.724Z,98447.94
2018-08-28T04:33:24.816Z,98445.73
2018-08-28T04:35:53.937Z,98449.86
2018-08-28T04:38:23.312Z,98454.41
2018-08-28T04:40:52.423Z,98453.91
2018-08-28T04:43:21.514Z,98461.09
2018-08-28T04:45:50.694Z,98456.06
2018-08-28T04:48:19.846Z,98457.44
2018-08-28T04:50:48.983Z,98458.92
2018-08-28T04:53:18.170Z,98465.92
2018-08-28T04:55:47.982Z,98465.95
2018-08-28T04:58:17.131Z,98464.58
2018-08-28T05:00:46.351Z,98471.97
2018-08-28T05:03:15.755Z,98468.89
2018-08-28T05:05:44.922Z,98473.34
2018-08-28T05:08:14.333Z,98479.03
2018-08-28T05:10:43.462Z,98481.70
2018-08-28T05:13:12.563Z,98484.95
2018-08-28T05:15:41.942Z,98479.92
2018-08-28T05:18:11.070Z,98481.89
2018-08-28T05:20:40.330Z,98475.27
2018-08-28T05:23:09.722Z,98483.63
2018-08-28T05:25:39.602Z,98481.73
2018-08-28T05:28:08.735Z,98479.04
2018-08-28T05:30:37.915Z,98484.73
2018-08-28T05:33:07.219Z,98482.55
2018-08-28T05:35:36.346Z,98481.75
2018-08-28T05:38:05.497Z,98487.23
2018-08-28T05:40:34.606Z,98492.48
2018-08-28T05:43:03.794Z,98492.05
2018-08-28T05:45:32.915Z,98497.69
2018-08-28T05:48:02.090Z,98497.80
2018-08-28T05:50:31.202Z,98495.73
2018-08-28T05:53:00.346Z,98490.72
2018-08-28T05:55:29.573Z,98492.74
2018-08-28T05:57:58.694Z,98492.72
2018-08-28T06:00:27.822Z,98488.86
2018-08-28T06:02:56.953Z,98483.06
2018-08-28T06:05:26.026Z,98484.76
2018-08-28T06:07:55.147Z,98483.30
2018-08-28T06:10:24.954Z,98482.47
2018-08-28T06:12:54.074Z,98481.66
2018-08-28T06:15:23.183Z,98482.67
2018-08-28T06:17:52.314Z,98490.61
2018-08-28T06:20:21.567Z,98491.55
2018-08-28T06:22:52.519Z,98492.70
2018-08-28T06:25:21.695Z,98494.95
2018-08-28T06:27:50.814Z,98498.03
2018-08-28T06:30:19.969Z,98497.64
2018-08-28T06:32:49.410Z,98489.95
2018-08-28T06:35:18.651Z,98487.70
2018-08-28T06:37:47.795Z,98487.58
2018-08-28T06:40:16.936Z,98482.30
2018-08-28T06:42:46.430Z,98481.34
2018-08-28T06:45:18.380Z,98479.00
2018-08-28T06:47:47.515Z,98477.02
2018-08-28T06:50:16.631Z,98484.42
2018-08-28T06:52:45.746Z,98480.77
2018-08-28T06:55:15.472Z,98477.70
2018-08-28T06:57:44.595Z,98484.20
2018-08-28T07:00:13.706Z,98486.52
2018-08-28T07:02:42.853Z,98482.21
2018-08-28T07:05:11.982Z,98478.95
2018-08-28T07:07:41.151Z,98485.34
2018-08-28T07:10:10.302Z,98488.14
2018-08-28T07:12:39.953Z,98479.33
2018-08-28T07:15:09.519Z,98481.38
2018-08-28T07:17:38.655Z,98479.20
2018-08-28T07:20:07.970Z,98471.33
2018-08-28T07:22:37.246Z,98470.28
2018-08-28T07:25:06.859Z,98471.20
2018-08-28T07:27:36.006Z,98467.71
2018-08-28T07:30:06.089Z,98468.80
2018-08-28T07:32:35.830Z,98466.39
2018-08-28T07:35:05.702Z,98464.23
2018-08-28T07:37:34.951Z,98467.74
2018-08-28T07:40:04.752Z,98469.08
2018-08-28T07:42:34.729Z,98468.94
2018-08-28T07:45:04.533Z,98470.59
2018-08-28T07:47:33.650Z,98465.12
2018-08-28T07:50:02.972Z,98460.67
2018-08-28T07:52:32.103Z,98469.33
2018-08-28T07:55:01.223Z,98467.72
2018-08-28T07:57:30.839Z,98469.40
2018-08-28T07:59:59.962Z,98466.67
2018-08-28T08:02:29.358Z,98466.36
2018-08-28T08:04:58.930Z,98462.13
2018-08-28T08:07:28.042Z,98465.56
2018-08-28T08:09:57.150Z,98464.10
2018-08-28T08:12:26.275Z,98466.60
2018-08-28T08:14:55.394Z,98470.20
2018-08-28T08:17:25.195Z,98469.47
2018-08-28T08:19:54.333Z,98463.44
2018-08-28T08:22:23.675Z,98464.95
2018-08-28T08:24:52.938Z,98468.23
2018-08-28T08:27:22.249Z,98467.23
2018-08-28T08:29:50.999Z,98465.41
2018-08-28T08:32:20.097Z,98466.37
2018-08-28T08:34:49.202Z,98471.70
2018-08-28T08:37:18.306Z,98463.38
2018-08-28T08:39:47.450Z,98466.64
2018-08-28T08:42:16.957Z,98457.72
2018-08-28T08:44:46.200Z,98458.62
2018-08-28T08:47:15.355Z,98454.62
2018-08-28T08:49:44.475Z,98461.98
2018-08-28T08:52:14.278Z,98454.77
2018-08-28T08:54:43.738Z,98454.86
2018-08-28T08:57:13.214Z,98456.23
2018-08-28T08:59:42.378Z,98452.77
2018-08-28T09:02:11.551Z,98457.52
2018-08-28T09:04:41.290Z,98445.58
2018-08-28T09:07:10.447Z,98450.70
2018-08-28T09:09:39.615Z,98445.86
2018-08-28T09:12:08.747Z,98453.52
2018-08-28T09:14:37.835Z,98447.09
2018-08-28T09:17:07.917Z,98445.27
2018-08-28T09:19:37.503Z,98443.58
2018-08-28T09:22:06.654Z,98446.94
2018-08-28T09:24:35.497Z,98445.31
2018-08-28T09:27:04.611Z,98439.17
2018-08-28T09:29:34.201Z,98445.74
2018-08-28T09:32:03.418Z,98440.75
2018-08-28T09:34:32.523Z,98436.24
2018-08-28T09:37:01.643Z,98437.37
2018-08-28T09:39:30.797Z,98427.31
2018-08-28T09:41:59.967Z,98425.27
2018-08-28T09:44:29.257Z,98429.62
2018-08-28T09:46:58.406Z,98418.89
2018-08-28T09:49:27.515Z,98422.77
2018-08-28T09:51:56.846Z,98417.08
2018-08-28T09:54:26.017Z,98420.66
2018-08-28T09:56:55.148Z,98414.79
2018-08-28T09:59:24.306Z,98417.34
2018-08-28T10:01:53.429Z,98414.46
2018-08-28T10:04:22.691Z,98415.67
2018-08-28T10:06:51.822Z,98404.63
2018-08-28T10:09:20.935Z,98397.36
2018-08-28T10:11:50.106Z,98392.55
2018-08-28T10:14:19.261Z,98394.61
2018-08-28T10:16:48.441Z,98388.72
2018-08-28T10:19:17.567Z,98387.59
2018-08-28T10:21:47.439Z,98381.22
2018-08-28T10:24:16.807Z,98380.61
2018-08-28T10:26:46.095Z,98372.66
2018-08-28T10:29:14.984Z,98371.23
2018-08-28T10:31:44.115Z,98369.06
2018-08-28T10:34:13.218Z,98363.97
2018-08-28T10:36:42.737Z,98367.23
2018-08-28T10:39:11.880Z,98361.17
2018-08-28T10:41:41.058Z,98364.29
2018-08-28T10:44:10.851Z,98359.69
2018-08-28T10:46:40.033Z,98359.69
2018-08-28T10:49:09.088Z,98357.27
2018-08-28T10:51:38.205Z,98358.53
2018-08-28T10:54:07.619Z,98351.55
2018-08-28T10:56:36.758Z,98354.18
2018-08-28T10:59:06.842Z,98344.62
2018-08-28T11:01:36.014Z,98351.33
2018-08-28T11:04:05.130Z,98346.81
2018-08-28T11:06:34.262Z,98351.39
2018-08-28T11:09:03.618Z,98338.78
2018-08-28T11:11:32.735Z,98338.00
2018-08-28T11:14:01.926Z,98330.34
2018-08-28T11:16:31.146Z,98334.53
2018-08-28T11:19:00.778Z,98337.63
2018-08-28T11:21:29.885Z,98337.61
2018-08-28T11:23:59.041Z,98334.91
2018-08-28T11:26:28.310Z,98326.73
2018-08-28T11:28:57.418Z,98326.70
2018-08-28T11:31:26.617Z,98324.05
2018-08-28T11:33:55.922Z,98319.39
2018-08-28T11:36:25.070Z,98325.81
2018-08-28T11:38:54.198Z,98316.91
2018-08-28T11:41:23.305Z,98312.02
2018-08-28T11:43:52.465Z,98311.58
2018-08-28T11:46:21.597Z,98313.05
2018-08-28T11:48:50.714Z,98315.51
2018-08-28T11:51:19.839Z,98306.66
2018-08-28T11:53:48.952Z,98309.09
2018-08-28T11:56:18.067Z,98312.94
2018-08-28T11:58:47.190Z,98307.52
2018-08-28T12:01:16.306Z,98297.73
2018-08-28T12:03:45.438Z,98296.77
2018-08-28T12:06:14.618Z,98301.21
2018-08-28T12:08:44.322Z,98297.64
2018-08-28T12:11:13.458Z,98298.38
2018-08-28T12:13:42.650Z,98299.20
2018-08-28T12:16:11.818Z,98285.66
2018-08-28T12:18:40.958Z,98290.64
2018-08-28T12:21:10.278Z,98282.43
2018-08-28T12:23:39.441Z,98277.14
2018-08-28T12:26:08.566Z,98276.47
2018-08-28T12:28:37.342Z,98270.37
2018-08-28T12:31:06.455Z,98272.38
2018-08-28T12:33:35.566Z,98272.61
2018-08-28T12:36:04.879Z,98266.72
2018-08-28T12:38:34.182Z,98257.95
2018-08-28T12:41:03.298Z,98265.69
2018-08-28T12:43:32.468Z,98263.21
2018-08-28T12:46:01.947Z,98257.02
2018-08-28T12:48:31.298Z,98255.14
2018-08-28T12:51:00.449Z,98252.48
2018-08-28T12:53:29.566Z,98256.30
2018-08-28T12:55:58.778Z,98252.71
2018-08-28T12:58:27.882Z,98244.50
2018-08-28T13:00:57.084Z,98238.84
2018-08-28T13:03:26.303Z,98243.53
2018-08-28T13:05:55.465Z,98240.81
2018-08-28T13:08:25.014Z,98245.89
2018-08-28T13:10:54.189Z,98243.02
2018-08-28T13:13:23.330Z,98248.23
2018-08-28T13:15:52.444Z,98248.45
2018-08-28T13:18:22.261Z,98237.77
2018-08-28T13:20:51.402Z,98239.45
2018-08-28T13:23:21.282Z,98231.80
2018-08-28T13:25:50.501Z,98232.97
2018-08-28T13:28:20.186Z,98230.52
2018-08-28T13:30:49.392Z,98230.48
2018-08-28T13:33:18.505Z,98231.66
2018-08-28T13:35:47.620Z,98231.81
2018-08-28T13:38:16.779Z,98233.05
2018-08-28T13:40:46.122Z,98225.06
2018-08-28T13:43:15.563Z,98231.23
2018-08-28T13:45:44.742Z,98228.67
2018-08-28T13:48:14.658Z,98226.37
2018-08-28T13:50:43.781Z,98219.27
2018-08-28T13:53:13.002Z,98216.78
2018-08-28T13:55:42.098Z,98216.69
2018-08-28T13:58:11.226Z,98215.67
2018-08-28T14:00:40.546Z,98214.76
2018-08-28T14:03:09.670Z,98206.03
2018-08-28T14:05:39.098Z,98212.35
2018-08-28T14:08:08.275Z,98210.03
2018-08-28T14:10:37.415Z,98204.43
2018-08-28T14:13:07.211Z,98209.22
2018-08-28T14:15:36.407Z,98205.19
2018-08-28T14:18:06.206Z,98201.07
2018-08-28T14:20:35.434Z,98192.91
2018-08-28T14:23:04.591Z,98197.59
2018-08-28T14:25:34.703Z,98193.56
2018-08-28T14:28:03.833Z,98187.19
2018-08-28T14:30:33.286Z,98185.13
2018-08-28T14:33:02.558Z,98189.77
2018-08-28T14:35:31.851Z,98181.14
2018-08-28T14:38:01.515Z,98180.23
2018-08-28T14:40:30.929Z,98183.91
2018-08-28T14:43:00.504Z,98179.45
2018-08-28T14:45:29.742Z,98173.58
2018-08-28T14:47:58.985Z,98171.06
2018-08-28T14:50:28.672Z,98172.77
2018-08-28T14:52:58.290Z,98169.85
2018-08-28T14:55:27.551Z,98169.14
2018-08-28T14:57:56.767Z,98163.67
2018-08-28T15:00:25.790Z,98159.06
2018-08-28T15:02:54.922Z,98162.56
2018-08-28T15:05:24.253Z,98156.27
2018-08-28T15:07:53.822Z,98147.32
2018-08-28T15:10:22.930Z,98143.91
2018-08-28T15:12:52.547Z,98148.35
2018-08-28T15:15:21.731Z,98152.34
2018-08-28T15:17:50.902Z,98146.56
2018-08-28T15:20:20.035Z,98147.38
2018-08-28T15:22:49.159Z,98139.20
2018-08-28T15:25:18.314Z,98143.78
2018-08-28T15:27:47.458Z,98143.73
2018-08-28T15:30:16.591Z,98145.55
2018-08-28T15:32:45.770Z,98140.60
2018-08-28T15:35:15.027Z,98143.56
2018-08-28T15:37:44.390Z,98143.73
2018-08-28T15:40:13.863Z,98145.94
2018-08-28T15:42:43.019Z,98134.13
2018-08-28T15:45:12.194Z,98131.44
2018-08-28T15:47:41.574Z,98129.41
2018-08-28T15:50:10.773Z,98126.50
2018-08-28T15:52:39.902Z,98128.14
2018-08-28T15:55:09.067Z,98128.13
2018-08-28T15:57:38.250Z,98126.87
2018-08-28T16:00:08.075Z,98127.87
2018-08-28T16:02:37.274Z,98131.91
2018-08-28T16:05:06.997Z,98133.20
2018-08-28T16:07:36.297Z,98136.33
2018-08-28T16:10:05.643Z,98136.31
2018-08-28T16:12:34.828Z,98140.30
2018-08-28T16:15:03.977Z,98138.05
2018-08-28T16:17:33.118Z,98127.50
2018-08-28T16:20:02.272Z,98129.29
2018-08-28T16:22:35.702Z,98133.89
2018-08-28T16:25:05.130Z,98120.48
2018-08-28T16:27:34.264Z,98121.62
2018-08-28T16:30:03.422Z,98111.04
2018-08-28T16:32:32.647Z,98108.30
2018-08-28T16:35:01.924Z,98112.73
2018-08-28T16:37:31.118Z,98108.58
2018-08-28T16:39:59.902Z,98109.67
2018-08-28T16:42:29.087Z,98106.84
2018-08-28T16:44:58.214Z,98103.75
2018-08-28T16:47:27.534Z,98107.77
2018-08-28T16:49:56.750Z,98098.62
2018-08-28T16:52:25.822Z,98101.08
2018-08-28T16:54:54.949Z,98090.66
2018-08-28T16:57:24.109Z,98089.04
2018-08-28T16:59:53.227Z,98092.47
2018-08-28T17:02:22.721Z,98079.34
2018-08-28T17:04:51.877Z,98082.17
2018-08-28T17:07:21.077Z,98086.23
2018-08-28T17:09:51.275Z,98088.92
2018-08-28T17:12:21.081Z,98082.67
2018-08-28T17:14:51.041Z,98081.48
2018-08-28T17:17:20.128Z,98081.89
2018-08-28T17:19:49.491Z,98083.61
2018-08-28T17:22:19.006Z,98090.59
2018-08-28T17:24:48.843Z,98093.16
2018-08-28T17:27:17.921Z,98091.16
2018-08-28T17:29:47.063Z,98100.67
2018-08-28T17:32:16.258Z,98103.69
2018-08-28T17:34:45.562Z,98100.92
2018-08-28T17:37:15.110Z,98104.17
2018-08-28T17:39:44.721Z,98104.84
2018-08-28T17:42:13.839Z,98102.84
2018-08-28T17:44:43.258Z,98102.64
2018-08-28T17:47:12.503Z,98117.27
2018-08-28T17:49:41.582Z,98111.94
2018-08-28T17:52:11.043Z,98109.41
2018-08-28T17:54:40.537Z,98110.74
2018-08-28T17:57:09.967Z,98111.79
2018-08-28T17:59:39.097Z,98116.23
2018-08-28T18:02:08.974Z,98109.50
2018-08-28T18:04:38.087Z,98111.62
2018-08-28T18:07:07.198Z,98116.55
2018-08-28T18:09:36.520Z,98117.08
2018-08-28T18:12:05.621Z,98117.60
2018-08-28T18:14:34.862Z,98122.23
2018-08-28T18:17:04.509Z,98120.92
2018-08-28T18:19:34.275Z,98118.34
2018-08-28T18:22:03.439Z,98126.16
2018-08-28T18:24:32.582Z,98116.55
2018-08-28T18:27:01.693Z,98108.21
2018-08-28T18:29:30.854Z,98112.83
2018-08-28T18:32:00.015Z,98113.28
2018-08-28T18:34:29.374Z,98107.80
2018-08-28T18:36:58.486Z,98114.93
2018-08-28T18:39:27.626Z,98108.68
2018-08-28T18:41:57.274Z,98111.27
2018-08-28T18:44:26.653Z,98107.30
2018-08-28T18:46:56.313Z,98110.85
2018-08-28T18:49:25.472Z,98118.45
2018-08-28T18:51:54.862Z,98121.51
2018-08-28T18:54:24.003Z,98120.41
2018-08-28T18:56:53.134Z,98119.19
2018-08-28T18:59:22.003Z,98124.16
2018-08-28T19:01:51.122Z,98124.01
2018-08-28T19:04:20.275Z,98118.02
2018-08-28T19:06:49.430Z,98118.23
2018-08-28T19:09:19.226Z,98126.00
2018-08-28T19:11:48.286Z,98123.54
2018-08-28T19:14:17.426Z,98124.67
2018-08-28T19:16:46.558Z,98122.34
2018-08-28T19:19:15.958Z,98126.05
2018-08-28T19:21:45.153Z,98127.31
2018-08-28T19:24:14.294Z,98130.67
2018-08-28T19:26:43.478Z,98127.02
2018-08-28T19:29:12.628Z,98124.27
2018-08-28T19:31:41.817Z,98133.30
2018-08-28T19:34:10.962Z,98131.69
2018-08-28T19:36:40.110Z,98128.85
2018-08-28T19:39:09.225Z,98126.31
2018-08-28T19:41:38.359Z,98127.27
2018-08-28T19:44:07.536Z,98126.87
2018-08-28T19:46:36.674Z,98115.91
2018-08-28T19:49:06.903Z,98117.13
2018-08-28T19:51:36.030Z,98114.12
2018-08-28T19:54:05.197Z,98115.09
2018-08-28T19:56:34.350Z,98114.41
2018-08-28T19:59:03.591Z,98117.20
2018-08-28T20:01:32.982Z,98109.48
2018-08-28T20:04:02.239Z,98104.00
2018-08-28T20:06:31.300Z,98107.26
2018-08-28T20:09:00.608Z,98106.20
2018-08-28T20:11:29.903Z,98105.36
2018-08-28T20:13:59.025Z,98093.92
2018-08-28T20:16:28.163Z,98106.45
2018-08-28T20:18:57.358Z,98102.58
2018-08-28T20:21:26.757Z,98105.10
2018-08-28T20:23:55.897Z,98099.05
2018-08-28T20:26:25.019Z,98097.36
2018-08-28T20:28:54.306Z,98090.17
2018-08-28T20:31:23.483Z,98091.48
2018-08-28T20:33:52.633Z,98097.06
2018-08-28T20:36:21.739Z,98096.52
2018-08-28T20:38:50.910Z,98090.54
2018-08-28T20:41:20.034Z,98088.11
2018-08-28T20:43:49.178Z,98087.37
2018-08-28T20:46:18.390Z,98079.70
2018-08-28T20:48:47.882Z,98081.92
2018-08-28T20:51:17.063Z,98083.16
2018-08-28T20:53:46.298Z,98088.42
2018-08-28T20:56:16.090Z,98083.29
2018-08-28T20:58:46.018Z,98080.63
2018-08-28T21:01:15.908Z,98079.77
2018-08-28T21:03:45.935Z,98077.95
2018-08-28T21:06:15.821Z,98075.91
2018-08-28T21:08:45.675Z,98074.14
2018-08-28T21:11:14.369Z,98079.85
2018-08-28T21:13:43.585Z,98080.31
2018-08-28T21:16:12.713Z,98078.30
2018-08-28T21:18:41.914Z,98075.25
2018-08-28T21:21:11.122Z,98070.94
2018-08-28T21:23:40.255Z,98067.88
2018-08-28T21:26:09.423Z,98069.53
2018-08-28T21:28:38.549Z,98059.60
2018-08-28T21:31:07.658Z,98064.87
2018-08-28T21:33:36.841Z,98061.16
2018-08-28T21:36:05.948Z,98065.34
2018-08-28T21:38:35.064Z,98064.89
2018-08-28T21:41:04.239Z,98056.84
2018-08-28T21:43:33.778Z,98059.35
2018-08-28T21:46:02.924Z,98061.44
2018-08-28T21:48:32.026Z,98057.31
2018-08-28T21:51:01.155Z,98048.94
2018-08-28T21:53:30.302Z,98053.03
2018-08-28T21:55:59.422Z,98048.22
2018-08-28T21:58:28.536Z,98043.54
2018-08-28T22:01:02.990Z,98043.24
2018-08-28T22:03:32.357Z,98043.75
2018-08-28T22:06:02.099Z,98043.93
2018-08-28T22:08:31.518Z,98036.31
2018-08-28T22:11:01.899Z,98044.56
2018-08-28T22:13:31.285Z,98037.18
2018-08-28T22:16:00.537Z,98032.75
2018-08-28T22:18:31.530Z,98028.66
2018-08-28T22:21:00.617Z,98027.55
2018-08-28T22:23:29.721Z,98031.92
2018-08-28T22:25:58.834Z,98027.23
2018-08-28T22:28:27.930Z,98035.89
2018-08-28T22:30:57.007Z,98032.52
2018-08-28T22:33:26.306Z,98032.05
2018-08-28T22:35:55.374Z,98035.08
2018-08-28T22:38:24.478Z,98039.31
2018-08-28T22:40:53.582Z,98036.39
2018-08-28T22:43:23.770Z,98030.61
2018-08-28T22:45:53.052Z,98031.16
2018-08-28T22:48:22.142Z,98023.35
2018-08-28T22:50:51.242Z,98025.03
2018-08-28T22:53:20.369Z,98025.28
2018-08-28T22:55:49.494Z,98019.12
2018-08-28T22:58:18.894Z,98012.26
2018-08-28T23:00:48.042Z,98013.01
2018-08-28T23:03:17.120Z,98015.38
2018-08-28T23:05:46.537Z,98008.84
2018-08-28T23:08:15.638Z,98005.71
2018-08-28T23:10:45.250Z,98002.50
2018-08-28T23:13:14.347Z,98002.37
2018-08-28T23:15:43.430Z,98004.41
2018-08-28T23:18:12.538Z,97999.11
2018-08-28T23:20:41.637Z,98000.59
2018-08-28T23:23:10.762Z,97994.86
2018-08-28T23:25:39.856Z,97995.43
2018-08-28T23:28:08.942Z,97996.65
2018-08-28T23:30:38.106Z,97999.50
2018-08-28T23:33:07.206Z,98000.13
2018-08-28T23:35:36.307Z,98001.36
2018-08-28T23:38:05.497Z,97999.05
2018-08-28T23:40:35.147Z,98000.64
2018-08-28T23:43:04.278Z,97997.23
2018-08-28T23:45:33.385Z,98001.80
2018-08-28T23:48:02.474Z,98002.06
2018-08-28T23:50:31.608Z,97993.66
2018-08-28T23:53:00.694Z,97995.83
2018-08-28T23:55:29.790Z,97996.72
2018-08-28T23:57:59.718Z,97996.41
